sensor_id;sensor_type;location;lat;lon;timestamp;temperature;humidity
52879;DHT22;38747;53.140;6.498;2023-05-10T00:00:52;13.30;99.90
52879;DHT22;38747;53.140;6.498;2023-05-10T00:03:18;13.30;99.90
52879;DHT22;38747;53.140;6.498;2023-05-10T00:05:43;13.30;99.90
52879;DHT22;38747;53.140;6.498;2023-05-10T00:08:09;13.30;99.90
52879;DHT22;38747;53.140;6.498;2023-05-10T00:10:35;13.30;99.90
52879;DHT22;38747;53.140;6.498;2023-05-10T00:13:01;13.30;99.90
52879;DHT22;38747;53.140;6.498;2023-05-10T00:15:27;13.30;99.90
52879;DHT22;38747;53.140;6.498;2023-05-10T00:17:52;13.30;99.90
52879;DHT22;38747;53.140;6.498;2023-05-10T00:20:18;13.30;99.90
52879;DHT22;38747;53.140;6.498;2023-05-10T00:22:44;13.30;99.90
52879;DHT22;38747;53.140;6.498;2023-05-10T00:25:09;13.30;99.90
52879;DHT22;38747;53.140;6.498;2023-05-10T00:27:35;13.30;99.90
52879;DHT22;38747;53.140;6.498;2023-05-10T00:30:01;13.30;99.90
52879;DHT22;38747;53.140;6.498;2023-05-10T00:32:27;13.30;99.90
52879;DHT22;38747;53.140;6.498;2023-05-10T00:34:52;13.30;99.90
52879;DHT22;38747;53.140;6.498;2023-05-10T00:37:18;13.20;99.90
52879;DHT22;38747;53.140;6.498;2023-05-10T00:39:43;13.20;99.90
52879;DHT22;38747;53.140;6.498;2023-05-10T00:42:09;13.20;99.90
52879;DHT22;38747;53.140;6.498;2023-05-10T00:44:35;13.20;99.90
52879;DHT22;38747;53.140;6.498;2023-05-10T00:47:00;13.20;99.90
52879;DHT22;38747;53.140;6.498;2023-05-10T00:49:26;13.20;99.90
52879;DHT22;38747;53.140;6.498;2023-05-10T00:51:52;13.20;99.90
52879;DHT22;38747;53.140;6.498;2023-05-10T00:54:17;13.20;99.90
52879;DHT22;38747;53.140;6.498;2023-05-10T00:56:43;13.20;99.90
52879;DHT22;38747;53.140;6.498;2023-05-10T00:59:17;13.20;99.90
52879;DHT22;38747;53.140;6.498;2023-05-10T01:01:44;13.20;99.90
52879;DHT22;38747;53.140;6.498;2023-05-10T01:04:12;13.10;99.90
52879;DHT22;38747;53.140;6.498;2023-05-10T01:06:41;13.20;99.90
52879;DHT22;38747;53.140;6.498;2023-05-10T01:09:07;13.10;99.90
52879;DHT22;38747;53.140;6.498;2023-05-10T01:11:35;13.20;99.90
52879;DHT22;38747;53.140;6.498;2023-05-10T01:14:02;13.10;99.90
52879;DHT22;38747;53.140;6.498;2023-05-10T01:16:30;13.10;99.90
52879;DHT22;38747;53.140;6.498;2023-05-10T01:18:57;13.10;99.90
52879;DHT22;38747;53.140;6.498;2023-05-10T01:21:46;13.00;99.90
52879;DHT22;38747;53.140;6.498;2023-05-10T01:24:35;13.10;99.90
52879;DHT22;38747;53.140;6.498;2023-05-10T01:27:21;13.00;99.90
52879;DHT22;38747;53.140;6.498;2023-05-10T01:41:14;13.00;99.90
52879;DHT22;38747;53.140;6.498;2023-05-10T01:44:08;13.00;99.90
52879;DHT22;38747;53.140;6.498;2023-05-10T01:46:37;13.00;99.90
52879;DHT22;38747;53.140;6.498;2023-05-10T01:49:10;12.90;99.90
52879;DHT22;38747;53.140;6.498;2023-05-10T01:51:45;12.90;99.90
52879;DHT22;38747;53.140;6.498;2023-05-10T01:54:13;12.90;99.90
52879;DHT22;38747;53.140;6.498;2023-05-10T01:56:40;12.90;99.90
52879;DHT22;38747;53.140;6.498;2023-05-10T01:59:12;12.90;99.90
52879;DHT22;38747;53.140;6.498;2023-05-10T02:01:40;12.90;99.90
52879;DHT22;38747;53.140;6.498;2023-05-10T02:04:07;12.90;99.90
52879;DHT22;38747;53.140;6.498;2023-05-10T02:06:35;12.90;99.90
52879;DHT22;38747;53.140;6.498;2023-05-10T02:09:02;12.90;99.90
52879;DHT22;38747;53.140;6.498;2023-05-10T02:11:29;12.90;99.90
52879;DHT22;38747;53.140;6.498;2023-05-10T02:13:56;12.80;99.90
52879;DHT22;38747;53.140;6.498;2023-05-10T02:16:24;12.90;99.90
52879;DHT22;38747;53.140;6.498;2023-05-10T02:18:52;12.80;99.90
52879;DHT22;38747;53.140;6.498;2023-05-10T02:21:20;12.80;99.90
52879;DHT22;38747;53.140;6.498;2023-05-10T02:23:46;12.80;99.90
52879;DHT22;38747;53.140;6.498;2023-05-10T02:26:14;12.90;99.90
52879;DHT22;38747;53.140;6.498;2023-05-10T02:28:40;12.80;99.90
52879;DHT22;38747;53.140;6.498;2023-05-10T02:31:07;12.80;99.90
52879;DHT22;38747;53.140;6.498;2023-05-10T02:33:35;12.80;99.90
52879;DHT22;38747;53.140;6.498;2023-05-10T02:36:03;12.80;99.90
52879;DHT22;38747;53.140;6.498;2023-05-10T02:38:30;12.80;99.90
52879;DHT22;38747;53.140;6.498;2023-05-10T02:40:57;12.80;99.90
52879;DHT22;38747;53.140;6.498;2023-05-10T02:43:24;12.80;99.90
52879;DHT22;38747;53.140;6.498;2023-05-10T02:45:51;12.80;99.90
52879;DHT22;38747;53.140;6.498;2023-05-10T02:48:17;12.80;99.90
52879;DHT22;38747;53.140;6.498;2023-05-10T02:50:44;12.80;99.90
52879;DHT22;38747;53.140;6.498;2023-05-10T02:53:15;12.80;99.90
52879;DHT22;38747;53.140;6.498;2023-05-10T02:55:45;12.80;99.90
52879;DHT22;38747;53.140;6.498;2023-05-10T02:58:14;12.80;99.90
52879;DHT22;38747;53.140;6.498;2023-05-10T03:00:40;12.80;99.90
52879;DHT22;38747;53.140;6.498;2023-05-10T03:03:05;12.80;99.90
52879;DHT22;38747;53.140;6.498;2023-05-10T03:05:32;12.80;99.90
52879;DHT22;38747;53.140;6.498;2023-05-10T03:07:59;12.80;99.90
52879;DHT22;38747;53.140;6.498;2023-05-10T03:10:29;12.80;99.90
52879;DHT22;38747;53.140;6.498;2023-05-10T03:15:52;12.80;99.90
52879;DHT22;38747;53.140;6.498;2023-05-10T03:18:29;12.80;99.90
52879;DHT22;38747;53.140;6.498;2023-05-10T03:21:00;12.80;99.90
52879;DHT22;38747;53.140;6.498;2023-05-10T03:23:38;12.80;99.90
52879;DHT22;38747;53.140;6.498;2023-05-10T03:26:06;12.80;99.90
52879;DHT22;38747;53.140;6.498;2023-05-10T03:28:34;12.80;99.90
52879;DHT22;38747;53.140;6.498;2023-05-10T03:31:01;12.70;99.90
52879;DHT22;38747;53.140;6.498;2023-05-10T03:33:27;12.80;99.90
52879;DHT22;38747;53.140;6.498;2023-05-10T03:35:53;12.70;99.90
52879;DHT22;38747;53.140;6.498;2023-05-10T03:38:19;12.80;99.90
52879;DHT22;38747;53.140;6.498;2023-05-10T03:40:45;12.70;99.90
52879;DHT22;38747;53.140;6.498;2023-05-10T03:43:10;12.70;99.90
52879;DHT22;38747;53.140;6.498;2023-05-10T03:45:36;12.70;99.90
52879;DHT22;38747;53.140;6.498;2023-05-10T03:48:01;12.70;99.90
52879;DHT22;38747;53.140;6.498;2023-05-10T03:50:27;12.70;99.90
52879;DHT22;38747;53.140;6.498;2023-05-10T03:52:52;12.80;99.90
52879;DHT22;38747;53.140;6.498;2023-05-10T03:55:18;12.70;99.90
52879;DHT22;38747;53.140;6.498;2023-05-10T03:57:44;12.70;99.90
52879;DHT22;38747;53.140;6.498;2023-05-10T04:00:10;12.60;99.90
52879;DHT22;38747;53.140;6.498;2023-05-10T04:02:36;12.70;99.90
52879;DHT22;38747;53.140;6.498;2023-05-10T04:05:02;12.70;99.90
52879;DHT22;38747;53.140;6.498;2023-05-10T04:07:27;12.70;99.90
52879;DHT22;38747;53.140;6.498;2023-05-10T04:09:53;12.70;99.90
52879;DHT22;38747;53.140;6.498;2023-05-10T04:12:19;12.60;99.90
52879;DHT22;38747;53.140;6.498;2023-05-10T04:14:45;12.60;99.90
52879;DHT22;38747;53.140;6.498;2023-05-10T04:17:10;12.60;99.90
52879;DHT22;38747;53.140;6.498;2023-05-10T04:19:36;12.70;99.90
52879;DHT22;38747;53.140;6.498;2023-05-10T04:22:02;12.60;99.90
52879;DHT22;38747;53.140;6.498;2023-05-10T04:24:28;12.60;99.90
52879;DHT22;38747;53.140;6.498;2023-05-10T04:26:54;12.60;99.90
52879;DHT22;38747;53.140;6.498;2023-05-10T04:29:20;12.50;99.90
52879;DHT22;38747;53.140;6.498;2023-05-10T04:31:46;12.50;99.90
52879;DHT22;38747;53.140;6.498;2023-05-10T04:34:11;12.50;99.90
52879;DHT22;38747;53.140;6.498;2023-05-10T04:36:37;12.60;99.90
52879;DHT22;38747;53.140;6.498;2023-05-10T04:39:03;12.60;99.90
52879;DHT22;38747;53.140;6.498;2023-05-10T04:41:29;12.60;99.90
52879;DHT22;38747;53.140;6.498;2023-05-10T04:43:55;12.60;99.90
52879;DHT22;38747;53.140;6.498;2023-05-10T04:46:21;12.50;99.90
52879;DHT22;38747;53.140;6.498;2023-05-10T04:48:47;12.60;99.90
52879;DHT22;38747;53.140;6.498;2023-05-10T04:51:12;12.50;99.90
52879;DHT22;38747;53.140;6.498;2023-05-10T04:53:38;12.50;99.90
52879;DHT22;38747;53.140;6.498;2023-05-10T04:56:04;12.50;99.90
52879;DHT22;38747;53.140;6.498;2023-05-10T04:58:30;12.50;99.90
52879;DHT22;38747;53.140;6.498;2023-05-10T05:00:55;12.60;99.90
52879;DHT22;38747;53.140;6.498;2023-05-10T05:03:21;12.50;99.90
52879;DHT22;38747;53.140;6.498;2023-05-10T05:05:47;12.50;99.90
52879;DHT22;38747;53.140;6.498;2023-05-10T05:08:13;12.50;99.90
52879;DHT22;38747;53.140;6.498;2023-05-10T05:10:39;12.50;99.90
52879;DHT22;38747;53.140;6.498;2023-05-10T05:13:04;12.60;99.90
52879;DHT22;38747;53.140;6.498;2023-05-10T05:15:30;12.50;99.90
52879;DHT22;38747;53.140;6.498;2023-05-10T05:17:56;12.50;99.90
52879;DHT22;38747;53.140;6.498;2023-05-10T05:20:22;12.50;99.90
52879;DHT22;38747;53.140;6.498;2023-05-10T05:22:48;12.50;99.90
52879;DHT22;38747;53.140;6.498;2023-05-10T05:25:13;12.50;99.90
52879;DHT22;38747;53.140;6.498;2023-05-10T05:27:40;12.50;99.90
52879;DHT22;38747;53.140;6.498;2023-05-10T05:30:06;12.50;99.90
52879;DHT22;38747;53.140;6.498;2023-05-10T05:32:32;12.50;99.90
52879;DHT22;38747;53.140;6.498;2023-05-10T05:34:58;12.50;99.90
52879;DHT22;38747;53.140;6.498;2023-05-10T05:37:23;12.50;99.90
52879;DHT22;38747;53.140;6.498;2023-05-10T05:39:49;12.50;99.90
52879;DHT22;38747;53.140;6.498;2023-05-10T05:42:15;12.50;99.90
52879;DHT22;38747;53.140;6.498;2023-05-10T05:44:43;12.50;99.90
52879;DHT22;38747;53.140;6.498;2023-05-10T05:47:09;12.50;99.90
52879;DHT22;38747;53.140;6.498;2023-05-10T05:49:34;12.50;99.90
52879;DHT22;38747;53.140;6.498;2023-05-10T05:52:00;12.50;99.90
52879;DHT22;38747;53.140;6.498;2023-05-10T05:54:27;12.60;99.90
52879;DHT22;38747;53.140;6.498;2023-05-10T05:56:59;12.60;99.90
52879;DHT22;38747;53.140;6.498;2023-05-10T05:59:25;12.60;99.90
52879;DHT22;38747;53.140;6.498;2023-05-10T06:01:51;12.70;99.90
52879;DHT22;38747;53.140;6.498;2023-05-10T06:04:18;12.60;99.90
52879;DHT22;38747;53.140;6.498;2023-05-10T06:06:44;12.60;99.90
52879;DHT22;38747;53.140;6.498;2023-05-10T06:09:10;12.60;99.90
52879;DHT22;38747;53.140;6.498;2023-05-10T06:11:36;12.70;99.90
52879;DHT22;38747;53.140;6.498;2023-05-10T06:14:05;12.60;99.90
52879;DHT22;38747;53.140;6.498;2023-05-10T06:16:32;12.60;99.90
52879;DHT22;38747;53.140;6.498;2023-05-10T06:18:58;12.70;99.90
52879;DHT22;38747;53.140;6.498;2023-05-10T06:21:23;12.60;99.90
52879;DHT22;38747;53.140;6.498;2023-05-10T06:23:49;12.60;99.90
52879;DHT22;38747;53.140;6.498;2023-05-10T06:26:15;12.60;99.90
52879;DHT22;38747;53.140;6.498;2023-05-10T06:28:40;12.60;99.90
52879;DHT22;38747;53.140;6.498;2023-05-10T06:31:06;12.70;99.90
52879;DHT22;38747;53.140;6.498;2023-05-10T06:33:32;12.60;99.90
52879;DHT22;38747;53.140;6.498;2023-05-10T06:35:58;12.60;99.90
52879;DHT22;38747;53.140;6.498;2023-05-10T06:38:24;12.60;99.90
52879;DHT22;38747;53.140;6.498;2023-05-10T06:40:50;12.60;99.90
52879;DHT22;38747;53.140;6.498;2023-05-10T06:43:16;12.60;99.90
52879;DHT22;38747;53.140;6.498;2023-05-10T06:45:41;12.60;99.90
52879;DHT22;38747;53.140;6.498;2023-05-10T06:48:07;12.60;99.90
52879;DHT22;38747;53.140;6.498;2023-05-10T06:50:33;12.60;99.90
52879;DHT22;38747;53.140;6.498;2023-05-10T06:53:00;12.60;99.90
52879;DHT22;38747;53.140;6.498;2023-05-10T06:55:26;12.60;99.90
52879;DHT22;38747;53.140;6.498;2023-05-10T06:57:51;12.60;99.90
52879;DHT22;38747;53.140;6.498;2023-05-10T07:00:18;12.60;99.90
52879;DHT22;38747;53.140;6.498;2023-05-10T07:02:44;12.60;99.90
52879;DHT22;38747;53.140;6.498;2023-05-10T07:05:09;12.60;99.90
52879;DHT22;38747;53.140;6.498;2023-05-10T07:07:35;12.70;99.90
52879;DHT22;38747;53.140;6.498;2023-05-10T07:10:01;12.60;99.90
52879;DHT22;38747;53.140;6.498;2023-05-10T07:12:27;12.60;99.90
52879;DHT22;38747;53.140;6.498;2023-05-10T07:14:53;12.60;99.90
52879;DHT22;38747;53.140;6.498;2023-05-10T07:17:18;12.60;99.90
52879;DHT22;38747;53.140;6.498;2023-05-10T07:19:44;12.60;99.90
52879;DHT22;38747;53.140;6.498;2023-05-10T07:22:09;12.70;99.90
52879;DHT22;38747;53.140;6.498;2023-05-10T07:24:35;12.80;99.90
52879;DHT22;38747;53.140;6.498;2023-05-10T07:27:01;12.90;99.90
52879;DHT22;38747;53.140;6.498;2023-05-10T07:29:27;12.90;99.90
52879;DHT22;38747;53.140;6.498;2023-05-10T07:31:53;12.90;99.90
52879;DHT22;38747;53.140;6.498;2023-05-10T07:34:19;13.00;99.90
52879;DHT22;38747;53.140;6.498;2023-05-10T07:36:45;13.00;99.90
52879;DHT22;38747;53.140;6.498;2023-05-10T07:39:10;12.90;99.90
52879;DHT22;38747;53.140;6.498;2023-05-10T07:41:36;13.00;99.90
52879;DHT22;38747;53.140;6.498;2023-05-10T07:44:03;13.00;99.90
52879;DHT22;38747;53.140;6.498;2023-05-10T07:46:29;13.00;99.90
52879;DHT22;38747;53.140;6.498;2023-05-10T07:48:55;13.00;99.90
52879;DHT22;38747;53.140;6.498;2023-05-10T07:51:21;13.00;99.90
52879;DHT22;38747;53.140;6.498;2023-05-10T07:53:46;13.00;99.90
52879;DHT22;38747;53.140;6.498;2023-05-10T07:56:26;13.00;99.90
52879;DHT22;38747;53.140;6.498;2023-05-10T07:58:55;13.00;99.90
52879;DHT22;38747;53.140;6.498;2023-05-10T08:01:21;12.90;99.90
52879;DHT22;38747;53.140;6.498;2023-05-10T08:03:48;12.90;99.90
52879;DHT22;38747;53.140;6.498;2023-05-10T08:06:14;13.00;99.90
52879;DHT22;38747;53.140;6.498;2023-05-10T08:08:41;12.90;99.90
52879;DHT22;38747;53.140;6.498;2023-05-10T08:11:07;13.00;99.90
52879;DHT22;38747;53.140;6.498;2023-05-10T08:13:33;13.00;99.90
52879;DHT22;38747;53.140;6.498;2023-05-10T08:15:58;13.00;99.90
52879;DHT22;38747;53.140;6.498;2023-05-10T08:18:24;13.00;99.90
52879;DHT22;38747;53.140;6.498;2023-05-10T08:20:50;13.00;99.90
52879;DHT22;38747;53.140;6.498;2023-05-10T08:23:15;13.00;99.90
52879;DHT22;38747;53.140;6.498;2023-05-10T08:25:41;13.00;99.90
52879;DHT22;38747;53.140;6.498;2023-05-10T08:28:07;13.10;99.90
52879;DHT22;38747;53.140;6.498;2023-05-10T08:30:32;13.10;99.90
52879;DHT22;38747;53.140;6.498;2023-05-10T08:32:58;13.10;99.90
52879;DHT22;38747;53.140;6.498;2023-05-10T08:35:23;13.10;99.90
52879;DHT22;38747;53.140;6.498;2023-05-10T08:37:50;13.10;99.90
52879;DHT22;38747;53.140;6.498;2023-05-10T08:40:19;13.10;99.90
52879;DHT22;38747;53.140;6.498;2023-05-10T08:42:55;13.20;99.90
52879;DHT22;38747;53.140;6.498;2023-05-10T08:45:23;13.20;99.90
52879;DHT22;38747;53.140;6.498;2023-05-10T08:47:50;13.30;99.90
52879;DHT22;38747;53.140;6.498;2023-05-10T08:50:20;13.30;99.90
52879;DHT22;38747;53.140;6.498;2023-05-10T08:52:48;13.20;99.90
52879;DHT22;38747;53.140;6.498;2023-05-10T08:55:16;13.40;99.90
52879;DHT22;38747;53.140;6.498;2023-05-10T08:57:42;13.30;99.90
52879;DHT22;38747;53.140;6.498;2023-05-10T09:00:08;13.30;99.90
52879;DHT22;38747;53.140;6.498;2023-05-10T09:02:35;13.30;99.90
52879;DHT22;38747;53.140;6.498;2023-05-10T09:05:02;13.40;99.90
52879;DHT22;38747;53.140;6.498;2023-05-10T09:07:30;13.30;99.90
52879;DHT22;38747;53.140;6.498;2023-05-10T09:09:56;13.40;99.90
52879;DHT22;38747;53.140;6.498;2023-05-10T09:12:22;13.40;99.90
52879;DHT22;38747;53.140;6.498;2023-05-10T09:14:50;13.40;99.90
52879;DHT22;38747;53.140;6.498;2023-05-10T09:17:16;13.40;99.90
52879;DHT22;38747;53.140;6.498;2023-05-10T09:19:41;13.50;99.90
52879;DHT22;38747;53.140;6.498;2023-05-10T09:22:07;13.40;99.90
52879;DHT22;38747;53.140;6.498;2023-05-10T09:24:33;13.40;99.90
52879;DHT22;38747;53.140;6.498;2023-05-10T09:26:59;13.50;99.90
52879;DHT22;38747;53.140;6.498;2023-05-10T09:29:25;13.50;99.90
52879;DHT22;38747;53.140;6.498;2023-05-10T09:31:52;13.60;99.90
52879;DHT22;38747;53.140;6.498;2023-05-10T09:34:30;13.60;99.90
52879;DHT22;38747;53.140;6.498;2023-05-10T09:36:57;13.70;99.90
52879;DHT22;38747;53.140;6.498;2023-05-10T09:39:33;13.70;99.90
52879;DHT22;38747;53.140;6.498;2023-05-10T09:42:03;13.80;99.90
52879;DHT22;38747;53.140;6.498;2023-05-10T09:44:29;13.80;99.90
52879;DHT22;38747;53.140;6.498;2023-05-10T09:46:55;13.80;99.90
52879;DHT22;38747;53.140;6.498;2023-05-10T09:49:22;13.90;99.90
52879;DHT22;38747;53.140;6.498;2023-05-10T09:52:01;14.00;99.90
52879;DHT22;38747;53.140;6.498;2023-05-10T09:54:27;14.20;99.90
52879;DHT22;38747;53.140;6.498;2023-05-10T09:56:53;14.30;99.90
52879;DHT22;38747;53.140;6.498;2023-05-10T09:59:19;14.30;99.90
52879;DHT22;38747;53.140;6.498;2023-05-10T10:01:50;14.40;99.90
52879;DHT22;38747;53.140;6.498;2023-05-10T10:04:17;14.40;99.90
52879;DHT22;38747;53.140;6.498;2023-05-10T10:06:42;14.40;99.90
52879;DHT22;38747;53.140;6.498;2023-05-10T10:09:08;14.60;99.90
52879;DHT22;38747;53.140;6.498;2023-05-10T10:11:35;14.70;99.90
52879;DHT22;38747;53.140;6.498;2023-05-10T10:14:01;14.70;99.90
52879;DHT22;38747;53.140;6.498;2023-05-10T10:16:29;14.70;99.90
52879;DHT22;38747;53.140;6.498;2023-05-10T10:18:56;14.70;99.90
52879;DHT22;38747;53.140;6.498;2023-05-10T10:21:22;14.70;99.90
52879;DHT22;38747;53.140;6.498;2023-05-10T10:23:48;14.70;99.90
52879;DHT22;38747;53.140;6.498;2023-05-10T10:26:14;14.70;99.90
52879;DHT22;38747;53.140;6.498;2023-05-10T10:29:03;14.60;99.90
52879;DHT22;38747;53.140;6.498;2023-05-10T10:34:25;14.40;99.90
52879;DHT22;38747;53.140;6.498;2023-05-10T10:36:52;14.40;99.90
52879;DHT22;38747;53.140;6.498;2023-05-10T10:39:20;14.40;99.90
52879;DHT22;38747;53.140;6.498;2023-05-10T10:41:56;14.40;99.90
52879;DHT22;38747;53.140;6.498;2023-05-10T10:50:02;14.70;99.90
52879;DHT22;38747;53.140;6.498;2023-05-10T10:52:35;14.90;99.90
52879;DHT22;38747;53.140;6.498;2023-05-10T11:02:48;15.10;99.90
52879;DHT22;38747;53.140;6.498;2023-05-10T11:08:20;15.20;99.90
52879;DHT22;38747;53.140;6.498;2023-05-10T11:13:32;15.10;99.90
52879;DHT22;38747;53.140;6.498;2023-05-10T11:15:58;15.00;99.90
52879;DHT22;38747;53.140;6.498;2023-05-10T11:18:28;15.00;99.90
52879;DHT22;38747;53.140;6.498;2023-05-10T11:21:01;14.90;99.90
52879;DHT22;38747;53.140;6.498;2023-05-10T11:23:55;14.80;99.90
52879;DHT22;38747;53.140;6.498;2023-05-10T11:26:23;14.80;99.90
52879;DHT22;38747;53.140;6.498;2023-05-10T11:28:52;14.80;99.90
52879;DHT22;38747;53.140;6.498;2023-05-10T11:31:19;14.70;99.90
52879;DHT22;38747;53.140;6.498;2023-05-10T11:33:53;14.60;99.90
52879;DHT22;38747;53.140;6.498;2023-05-10T11:36:21;14.60;99.90
52879;DHT22;38747;53.140;6.498;2023-05-10T11:38:47;14.60;99.90
52879;DHT22;38747;53.140;6.498;2023-05-10T11:41:14;14.50;99.90
52879;DHT22;38747;53.140;6.498;2023-05-10T11:43:41;14.50;99.90
52879;DHT22;38747;53.140;6.498;2023-05-10T11:46:11;14.50;99.90
52879;DHT22;38747;53.140;6.498;2023-05-10T11:48:41;14.50;99.90
52879;DHT22;38747;53.140;6.498;2023-05-10T11:51:08;14.60;99.90
52879;DHT22;38747;53.140;6.498;2023-05-10T11:53:34;14.60;99.90
52879;DHT22;38747;53.140;6.498;2023-05-10T11:56:06;14.70;99.90
52879;DHT22;38747;53.140;6.498;2023-05-10T11:58:33;14.80;99.90
52879;DHT22;38747;53.140;6.498;2023-05-10T12:00:59;14.80;99.90
52879;DHT22;38747;53.140;6.498;2023-05-10T12:03:26;14.90;99.90
52879;DHT22;38747;53.140;6.498;2023-05-10T12:05:52;14.90;99.90
52879;DHT22;38747;53.140;6.498;2023-05-10T12:08:26;15.00;99.90
52879;DHT22;38747;53.140;6.498;2023-05-10T12:10:52;15.10;99.90
52879;DHT22;38747;53.140;6.498;2023-05-10T12:13:20;15.10;99.90
52879;DHT22;38747;53.140;6.498;2023-05-10T12:15:46;15.10;99.90
52879;DHT22;38747;53.140;6.498;2023-05-10T12:18:13;15.20;99.90
52879;DHT22;38747;53.140;6.498;2023-05-10T12:20:39;15.20;99.90
52879;DHT22;38747;53.140;6.498;2023-05-10T12:23:07;15.40;99.90
52879;DHT22;38747;53.140;6.498;2023-05-10T12:25:35;15.40;99.90
52879;DHT22;38747;53.140;6.498;2023-05-10T12:28:06;15.50;99.90
52879;DHT22;38747;53.140;6.498;2023-05-10T12:30:33;15.50;99.90
52879;DHT22;38747;53.140;6.498;2023-05-10T12:33:02;15.60;99.90
52879;DHT22;38747;53.140;6.498;2023-05-10T12:35:32;15.60;99.90
52879;DHT22;38747;53.140;6.498;2023-05-10T12:37:58;15.60;99.90
52879;DHT22;38747;53.140;6.498;2023-05-10T12:40:23;15.50;99.90
52879;DHT22;38747;53.140;6.498;2023-05-10T12:42:49;15.40;99.90
52879;DHT22;38747;53.140;6.498;2023-05-10T12:45:15;15.30;99.90
52879;DHT22;38747;53.140;6.498;2023-05-10T12:47:42;15.20;99.90
52879;DHT22;38747;53.140;6.498;2023-05-10T12:50:08;15.20;99.90
52879;DHT22;38747;53.140;6.498;2023-05-10T12:52:34;15.20;99.90
52879;DHT22;38747;53.140;6.498;2023-05-10T12:55:00;15.20;99.90
52879;DHT22;38747;53.140;6.498;2023-05-10T12:57:26;15.20;99.90
52879;DHT22;38747;53.140;6.498;2023-05-10T12:59:53;15.30;99.90
52879;DHT22;38747;53.140;6.498;2023-05-10T13:02:19;15.30;99.90
52879;DHT22;38747;53.140;6.498;2023-05-10T13:04:45;15.40;99.90
52879;DHT22;38747;53.140;6.498;2023-05-10T13:07:12;15.40;99.90
52879;DHT22;38747;53.140;6.498;2023-05-10T13:09:37;15.50;99.90
52879;DHT22;38747;53.140;6.498;2023-05-10T13:12:03;15.60;99.90
52879;DHT22;38747;53.140;6.498;2023-05-10T13:14:29;15.70;99.90
52879;DHT22;38747;53.140;6.498;2023-05-10T13:16:55;15.70;99.90
52879;DHT22;38747;53.140;6.498;2023-05-10T13:19:21;15.80;99.90
52879;DHT22;38747;53.140;6.498;2023-05-10T13:21:47;15.80;99.90
52879;DHT22;38747;53.140;6.498;2023-05-10T13:24:12;15.90;99.90
52879;DHT22;38747;53.140;6.498;2023-05-10T13:26:42;16.00;99.90
52879;DHT22;38747;53.140;6.498;2023-05-10T13:29:08;16.10;99.90
52879;DHT22;38747;53.140;6.498;2023-05-10T13:31:34;16.20;99.90
52879;DHT22;38747;53.140;6.498;2023-05-10T13:34:00;16.20;99.90
52879;DHT22;38747;53.140;6.498;2023-05-10T13:36:26;16.30;99.90
52879;DHT22;38747;53.140;6.498;2023-05-10T13:38:51;16.30;99.90
52879;DHT22;38747;53.140;6.498;2023-05-10T13:41:17;16.40;99.90
52879;DHT22;38747;53.140;6.498;2023-05-10T13:43:43;16.40;99.90
52879;DHT22;38747;53.140;6.498;2023-05-10T13:46:08;16.50;99.90
52879;DHT22;38747;53.140;6.498;2023-05-10T13:48:34;16.50;99.90
52879;DHT22;38747;53.140;6.498;2023-05-10T13:50:59;16.50;99.90
52879;DHT22;38747;53.140;6.498;2023-05-10T13:53:25;16.40;99.90
52879;DHT22;38747;53.140;6.498;2023-05-10T13:55:51;16.40;99.90
52879;DHT22;38747;53.140;6.498;2023-05-10T13:58:17;16.40;99.90
52879;DHT22;38747;53.140;6.498;2023-05-10T14:00:42;16.50;99.90
52879;DHT22;38747;53.140;6.498;2023-05-10T14:03:08;16.40;99.90
52879;DHT22;38747;53.140;6.498;2023-05-10T14:05:36;16.40;99.90
52879;DHT22;38747;53.140;6.498;2023-05-10T14:08:01;16.40;99.90
52879;DHT22;38747;53.140;6.498;2023-05-10T14:10:29;16.40;99.90
52879;DHT22;38747;53.140;6.498;2023-05-10T14:12:55;16.50;99.90
52879;DHT22;38747;53.140;6.498;2023-05-10T14:15:21;16.60;99.90
52879;DHT22;38747;53.140;6.498;2023-05-10T14:17:46;16.60;99.90
52879;DHT22;38747;53.140;6.498;2023-05-10T14:20:12;16.70;99.90
52879;DHT22;38747;53.140;6.498;2023-05-10T14:22:37;16.70;99.90
52879;DHT22;38747;53.140;6.498;2023-05-10T14:25:03;16.60;99.90
52879;DHT22;38747;53.140;6.498;2023-05-10T14:27:29;16.70;99.90
52879;DHT22;38747;53.140;6.498;2023-05-10T14:29:55;16.60;99.90
52879;DHT22;38747;53.140;6.498;2023-05-10T14:32:21;16.50;99.90
52879;DHT22;38747;53.140;6.498;2023-05-10T14:34:47;16.50;99.90
52879;DHT22;38747;53.140;6.498;2023-05-10T14:37:13;16.50;99.90
52879;DHT22;38747;53.140;6.498;2023-05-10T14:39:39;16.50;99.90
52879;DHT22;38747;53.140;6.498;2023-05-10T14:42:05;16.50;99.90
52879;DHT22;38747;53.140;6.498;2023-05-10T14:44:30;16.50;99.90
52879;DHT22;38747;53.140;6.498;2023-05-10T14:46:56;16.40;99.90
52879;DHT22;38747;53.140;6.498;2023-05-10T14:49:22;16.40;99.90
52879;DHT22;38747;53.140;6.498;2023-05-10T14:51:50;16.30;99.90
52879;DHT22;38747;53.140;6.498;2023-05-10T14:54:16;16.40;99.90
52879;DHT22;38747;53.140;6.498;2023-05-10T14:56:42;16.40;99.90
52879;DHT22;38747;53.140;6.498;2023-05-10T14:59:08;16.40;99.90
52879;DHT22;38747;53.140;6.498;2023-05-10T15:01:34;16.50;99.90
52879;DHT22;38747;53.140;6.498;2023-05-10T15:04:05;16.40;99.90
52879;DHT22;38747;53.140;6.498;2023-05-10T15:06:32;16.40;99.90
52879;DHT22;38747;53.140;6.498;2023-05-10T15:08:57;16.50;99.90
52879;DHT22;38747;53.140;6.498;2023-05-10T15:11:23;16.30;99.90
52879;DHT22;38747;53.140;6.498;2023-05-10T15:13:49;16.20;99.90
52879;DHT22;38747;53.140;6.498;2023-05-10T15:16:15;16.20;99.90
52879;DHT22;38747;53.140;6.498;2023-05-10T15:18:40;16.20;99.90
52879;DHT22;38747;53.140;6.498;2023-05-10T15:21:06;16.10;99.90
52879;DHT22;38747;53.140;6.498;2023-05-10T15:23:32;16.10;99.90
52879;DHT22;38747;53.140;6.498;2023-05-10T15:25:57;15.90;99.90
52879;DHT22;38747;53.140;6.498;2023-05-10T15:28:23;15.90;99.90
52879;DHT22;38747;53.140;6.498;2023-05-10T15:30:48;15.70;99.90
52879;DHT22;38747;53.140;6.498;2023-05-10T15:33:14;15.70;99.90
52879;DHT22;38747;53.140;6.498;2023-05-10T15:35:40;15.60;99.90
52879;DHT22;38747;53.140;6.498;2023-05-10T15:38:06;15.50;99.90
52879;DHT22;38747;53.140;6.498;2023-05-10T15:40:32;15.50;99.90
52879;DHT22;38747;53.140;6.498;2023-05-10T15:42:58;15.50;99.90
52879;DHT22;38747;53.140;6.498;2023-05-10T15:45:23;15.40;99.90
52879;DHT22;38747;53.140;6.498;2023-05-10T15:47:49;15.40;99.90
52879;DHT22;38747;53.140;6.498;2023-05-10T15:50:15;15.40;99.90
52879;DHT22;38747;53.140;6.498;2023-05-10T15:52:41;15.40;99.90
52879;DHT22;38747;53.140;6.498;2023-05-10T15:55:08;15.50;99.90
52879;DHT22;38747;53.140;6.498;2023-05-10T15:57:40;15.40;99.90
52879;DHT22;38747;53.140;6.498;2023-05-10T16:00:07;15.50;99.90
52879;DHT22;38747;53.140;6.498;2023-05-10T16:02:33;15.50;99.90
52879;DHT22;38747;53.140;6.498;2023-05-10T16:04:59;15.50;99.90